Time;durP1;ratioP1;P1;durP2;ratioP2;P2;SDS_P1;SDS_P2;PMS_P1;PMS_P2;Temp;Humidity;BMP_temperature;BMP_pressure;BME280_temperature;BME280_humidity;BME280_pressure;Samples;Min_cycle;Max_cycle;Signal;HPM_P1;HPM_P2
2021/05/31 00:02:24;;;;;;;6.60;5.87;;;13.50;99.90;;;;;;5055255;28;20171;-69
2021/05/31 00:04:50;;;;;;;6.43;5.20;;;13.50;99.90;;;;;;5053047;28;20148;-69
2021/05/31 00:07:18;;;;;;;7.67;5.80;;;13.40;99.90;;;;;;5045603;28;20225;-69
2021/05/31 00:09:45;;;;;;;6.83;5.90;;;13.40;99.90;;;;;;5054905;28;20157;-69
2021/05/31 00:12:14;;;;;;;7.07;5.60;;;13.40;99.90;;;;;;5055168;28;20900;-69
2021/05/31 00:14:41;;;;;;;8.90;6.73;;;13.30;99.90;;;;;;5054962;28;20399;-69
2021/05/31 00:17:07;;;;;;;6.57;5.30;;;13.30;99.90;;;;;;5055020;28;20879;-69
2021/05/31 00:19:33;;;;;;;8.00;5.73;;;13.30;99.90;;;;;;5054225;28;20486;-69
2021/05/31 00:21:59;;;;;;;6.23;5.63;;;13.30;99.90;;;;;;5054688;28;20188;-69
2021/05/31 00:24:24;;;;;;;6.57;5.53;;;13.20;99.90;;;;;;5042565;28;20845;-69
2021/05/31 00:26:50;;;;;;;6.97;5.63;;;13.20;99.90;;;;;;5034468;28;20165;-69
2021/05/31 00:29:21;;;;;;;7.23;5.97;;;13.20;99.90;;;;;;5034720;28;20157;-69
2021/05/31 00:31:47;;;;;;;6.90;6.20;;;13.10;99.90;;;;;;5034599;28;20442;-69
2021/05/31 00:34:14;;;;;;;9.33;5.70;;;13.10;99.90;;;;;;5034296;28;20771;-69
2021/05/31 00:36:39;;;;;;;9.43;5.80;;;13.10;99.90;;;;;;5034447;28;20169;-69
2021/05/31 00:39:05;;;;;;;6.10;5.50;;;13.00;99.90;;;;;;5034482;28;20497;-69
2021/05/31 00:41:31;;;;;;;7.13;6.17;;;13.00;99.90;;;;;;5034257;28;20184;-69
2021/05/31 00:43:56;;;;;;;6.97;6.27;;;13.00;99.90;;;;;;5034231;28;20157;-69
2021/05/31 00:46:24;;;;;;;6.60;5.30;;;13.00;99.90;;;;;;5034550;28;20158;-69
2021/05/31 00:48:50;;;;;;;7.60;5.30;;;12.90;99.90;;;;;;5034076;28;20244;-69
2021/05/31 00:51:16;;;;;;;6.00;5.37;;;12.90;99.90;;;;;;5053646;28;20422;-69
2021/05/31 00:53:42;;;;;;;7.87;6.10;;;12.90;99.90;;;;;;5054177;28;20959;-69
2021/05/31 00:56:07;;;;;;;6.87;6.00;;;12.80;99.90;;;;;;5054074;28;20218;-69
2021/05/31 00:58:33;;;;;;;6.53;5.93;;;12.80;99.90;;;;;;5053102;28;20577;-69
2021/05/31 01:01:00;;;;;;;8.93;6.27;;;12.80;99.90;;;;;;5054144;28;20160;-69
2021/05/31 01:03:27;;;;;;;10.73;6.70;;;12.70;99.90;;;;;;5053777;28;20168;-69
2021/05/31 01:05:54;;;;;;;7.47;6.67;;;12.70;99.90;;;;;;5034914;28;20419;-69
2021/05/31 01:08:25;;;;;;;9.23;5.60;;;12.70;99.90;;;;;;5034036;28;20892;-69
2021/05/31 01:11:12;;;;;;;6.30;5.40;;;12.70;99.90;;;;;;5033833;28;20874;-69
2021/05/31 01:16:21;;;;;;;6.30;5.70;;;12.60;99.90;;;;;;5086765;27;20905;-69
2021/05/31 01:18:48;;;;;;;6.90;5.60;;;12.60;99.90;;;;;;5070076;28;20397;-69
2021/05/31 01:32:32;;;;;;;9.17;6.13;;;12.50;99.90;;;;;;5057553;28;20521;-70
2021/05/31 01:35:03;;;;;;;7.03;5.87;;;12.40;99.90;;;;;;5050300;28;20395;-70
2021/05/31 01:37:29;;;;;;;8.53;6.30;;;12.40;99.90;;;;;;5050443;28;20541;-69
2021/05/31 01:40:00;;;;;;;6.50;5.83;;;12.40;99.90;;;;;;5050165;28;20888;-70
2021/05/31 01:42:26;;;;;;;8.23;5.70;;;12.40;99.90;;;;;;5049843;28;20445;-69
2021/05/31 01:44:52;;;;;;;6.77;6.07;;;12.30;99.90;;;;;;5050225;28;20387;-69
2021/05/31 01:47:19;;;;;;;6.00;5.50;;;12.30;99.90;;;;;;5050006;28;20399;-70
2021/05/31 01:49:45;;;;;;;8.87;5.97;;;12.30;99.90;;;;;;5049876;28;20402;-70
2021/05/31 01:52:12;;;;;;;6.10;5.60;;;12.20;99.90;;;;;;5049617;28;20489;-69
2021/05/31 01:54:37;;;;;;;5.90;5.30;;;12.20;99.90;;;;;;5049991;28;20935;-69
2021/05/31 01:57:05;;;;;;;5.90;5.27;;;12.20;99.90;;;;;;5049504;28;20422;-69
2021/05/31 01:59:32;;;;;;;8.50;5.87;;;12.20;99.90;;;;;;5038177;28;20196;-69
2021/05/31 02:01:58;;;;;;;7.13;6.43;;;12.10;99.90;;;;;;5029875;28;20404;-69
2021/05/31 02:04:24;;;;;;;6.33;5.67;;;12.10;99.90;;;;;;5029841;28;20403;-69
2021/05/31 02:06:52;;;;;;;8.80;5.60;;;12.10;99.90;;;;;;5029801;28;20927;-69
2021/05/31 02:09:18;;;;;;;8.50;6.20;;;12.10;99.90;;;;;;5029718;28;20195;-70
2021/05/31 02:11:54;;;;;;;5.83;4.73;;;12.00;99.90;;;;;;5029488;28;20462;-69
2021/05/31 02:14:29;;;;;;;9.37;6.40;;;12.00;99.90;;;;;;5029695;28;20411;-69
2021/05/31 02:17:10;;;;;;;9.40;5.80;;;12.00;99.90;;;;;;5029622;28;20406;-69
2021/05/31 02:19:39;;;;;;;6.37;5.77;;;12.00;99.90;;;;;;5029596;28;20450;-69
2021/05/31 02:22:08;;;;;;;6.77;6.17;;;11.90;99.90;;;;;;5029575;28;20507;-69
2021/05/31 02:24:36;;;;;;;6.90;6.10;;;11.90;99.90;;;;;;5029347;28;20407;-70
2021/05/31 02:27:04;;;;;;;6.10;5.50;;;11.90;99.90;;;;;;5029417;28;20423;-70
2021/05/31 02:29:30;;;;;;;6.27;5.50;;;11.90;99.90;;;;;;5029415;28;20427;-70
2021/05/31 02:31:56;;;;;;;6.00;5.40;;;11.80;99.90;;;;;;5029323;28;20470;-70
2021/05/31 02:34:21;;;;;;;7.60;6.10;;;11.80;99.90;;;;;;5029669;28;20400;-70
2021/05/31 02:36:48;;;;;;;8.00;5.90;;;11.80;99.90;;;;;;5029265;28;20189;-70
2021/05/31 02:39:15;;;;;;;7.07;6.30;;;11.70;99.90;;;;;;5029507;28;20177;-69
2021/05/31 02:41:41;;;;;;;8.13;7.33;;;11.70;99.90;;;;;;5018618;28;20416;-69
2021/05/31 02:44:07;;;;;;;7.20;6.50;;;11.70;99.90;;;;;;4996167;28;20531;-69
2021/05/31 02:46:32;;;;;;;8.37;6.10;;;11.70;99.90;;;;;;4996456;28;20535;-69
2021/05/31 02:48:58;;;;;;;8.03;5.67;;;11.70;99.90;;;;;;4996249;28;20212;-69
2021/05/31 02:51:23;;;;;;;6.50;5.77;;;11.60;99.90;;;;;;5008184;28;20207;-69
2021/05/31 02:53:49;;;;;;;7.60;6.90;;;11.60;99.90;;;;;;5015794;28;20165;-69
2021/05/31 02:56:15;;;;;;;5.87;5.37;;;11.60;99.90;;;;;;5015265;28;20778;-69
2021/05/31 02:58:41;;;;;;;6.00;5.37;;;11.60;99.90;;;;;;5015809;28;20185;-69
2021/05/31 03:01:07;;;;;;;7.13;5.77;;;11.50;99.90;;;;;;5016183;28;20161;-72
2021/05/31 03:03:33;;;;;;;6.20;5.63;;;11.50;99.90;;;;;;5015745;28;20431;-72
2021/05/31 03:05:58;;;;;;;6.60;5.87;;;11.50;99.90;;;;;;5015581;28;20220;-73
2021/05/31 03:08:24;;;;;;;8.00;5.60;;;11.50;99.90;;;;;;5015432;28;20169;-73
2021/05/31 03:10:49;;;;;;;6.07;5.47;;;11.50;99.90;;;;;;5015179;28;20331;-72
2021/05/31 03:13:15;;;;;;;7.73;6.13;;;11.40;99.90;;;;;;5015470;28;20256;-72
2021/05/31 03:15:41;;;;;;;6.57;5.83;;;11.40;99.90;;;;;;5015430;28;20161;-72
2021/05/31 03:18:07;;;;;;;11.53;6.97;;;11.40;99.90;;;;;;5015934;28;20177;-72
2021/05/31 03:20:33;;;;;;;7.03;6.07;;;11.40;99.90;;;;;;5015292;28;20544;-72
2021/05/31 03:23:01;;;;;;;8.60;7.03;;;11.40;99.90;;;;;;5014922;28;20181;-72
2021/05/31 03:25:27;;;;;;;6.40;5.80;;;11.30;99.90;;;;;;5015282;28;20412;-72
2021/05/31 03:27:53;;;;;;;7.60;6.80;;;11.30;99.90;;;;;;5015453;28;20471;-72
2021/05/31 03:30:20;;;;;;;8.33;6.70;;;11.30;99.90;;;;;;5014526;28;20531;-73
2021/05/31 03:32:46;;;;;;;6.70;6.10;;;11.30;99.90;;;;;;5014939;28;20411;-73
2021/05/31 03:35:13;;;;;;;7.30;6.60;;;11.30;99.90;;;;;;5015183;28;20412;-72
2021/05/31 03:37:40;;;;;;;8.33;6.97;;;11.30;99.90;;;;;;5014960;28;20189;-72
2021/05/31 03:40:07;;;;;;;11.73;8.00;;;11.20;99.90;;;;;;5014879;28;20385;-72
2021/05/31 03:42:34;;;;;;;8.93;6.27;;;11.20;99.90;;;;;;5015047;28;20396;-72
2021/05/31 03:44:59;;;;;;;6.33;5.73;;;11.20;99.90;;;;;;5014993;28;20760;-72
2021/05/31 03:47:25;;;;;;;6.73;5.83;;;11.20;99.90;;;;;;5014663;28;20405;-72
2021/05/31 03:49:50;;;;;;;6.30;5.70;;;11.20;99.90;;;;;;5014514;28;20154;-72
2021/05/31 03:52:16;;;;;;;6.80;5.97;;;11.20;99.90;;;;;;5014490;28;20181;-72
2021/05/31 03:54:42;;;;;;;7.17;6.40;;;11.20;99.90;;;;;;5013730;28;20162;-72
2021/05/31 03:57:07;;;;;;;10.17;8.30;;;11.20;99.90;;;;;;5015020;28;20173;-72
2021/05/31 03:59:33;;;;;;;9.70;8.70;;;11.20;99.90;;;;;;5014770;28;20185;-72
2021/05/31 04:02:00;;;;;;;7.63;6.77;;;11.20;99.90;;;;;;5014376;28;20546;-72
2021/05/31 04:04:26;;;;;;;8.47;6.47;;;11.20;99.90;;;;;;5014316;28;20798;-72
2021/05/31 04:07:22;;;;;;;7.80;6.43;;;11.20;99.90;;;;;;5014488;28;20775;-72
2021/05/31 04:12:23;;;;;;;8.03;6.83;;;11.20;99.90;;;;;;5013718;28;21051;-72
2021/05/31 04:14:48;;;;;;;11.60;8.90;;;11.20;99.90;;;;;;5014475;28;20432;-72
2021/05/31 04:17:14;;;;;;;9.77;7.80;;;11.20;99.90;;;;;;5014340;28;20236;-72
2021/05/31 04:19:39;;;;;;;9.47;7.80;;;11.20;99.90;;;;;;5014066;28;20170;-72
2021/05/31 04:22:05;;;;;;;11.40;7.60;;;11.20;99.90;;;;;;5014133;28;20189;-72
2021/05/31 04:24:31;;;;;;;11.77;7.43;;;11.30;99.90;;;;;;5014408;28;20614;-72
2021/05/31 04:26:56;;;;;;;10.93;8.00;;;11.30;99.90;;;;;;5014413;28;20165;-72
2021/05/31 04:29:22;;;;;;;8.13;7.43;;;11.30;99.90;;;;;;5014264;28;20165;-72
2021/05/31 04:31:47;;;;;;;8.17;7.37;;;11.30;99.90;;;;;;5014010;28;20226;-72
2021/05/31 04:34:13;;;;;;;8.90;8.00;;;11.30;99.90;;;;;;5013552;28;20268;-72
2021/05/31 04:36:40;;;;;;;8.17;7.37;;;11.30;99.90;;;;;;5014313;28;20153;-72
2021/05/31 04:39:07;;;;;;;10.27;7.73;;;11.30;99.90;;;;;;5014093;28;20595;-72
2021/05/31 04:41:36;;;;;;;10.20;8.67;;;11.30;99.90;;;;;;5014019;28;20897;-72
2021/05/31 04:44:01;;;;;;;11.67;8.13;;;11.30;99.90;;;;;;5013878;28;20450;-72
2021/05/31 04:46:27;;;;;;;8.90;7.70;;;11.30;99.90;;;;;;5014007;28;20389;-72
2021/05/31 04:48:54;;;;;;;10.90;6.73;;;11.30;99.90;;;;;;5013637;28;20596;-72
2021/05/31 04:51:20;;;;;;;9.27;7.50;;;11.40;99.90;;;;;;5013678;28;20332;-72
2021/05/31 04:53:45;;;;;;;7.67;6.90;;;11.40;99.90;;;;;;5014872;28;20409;-72
2021/05/31 04:56:13;;;;;;;8.90;8.00;;;11.40;99.90;;;;;;5014745;28;20779;-72
2021/05/31 04:58:39;;;;;;;9.23;8.20;;;11.40;99.90;;;;;;5013850;28;20304;-72
2021/05/31 05:01:04;;;;;;;10.57;7.73;;;11.50;99.90;;;;;;5013964;28;20905;-72
2021/05/31 05:03:30;;;;;;;8.60;7.80;;;11.60;99.90;;;;;;5013907;28;20525;-72
2021/05/31 05:05:56;;;;;;;12.43;9.63;;;11.60;99.90;;;;;;5012520;28;20176;-72
2021/05/31 05:08:21;;;;;;;13.40;9.73;;;11.70;99.90;;;;;;5014917;28;20212;-72
2021/05/31 05:10:47;;;;;;;13.10;8.23;;;11.70;99.90;;;;;;5013621;28;20247;-72
2021/05/31 05:13:13;;;;;;;9.43;7.83;;;11.80;99.90;;;;;;5013899;28;20654;-72
2021/05/31 05:15:39;;;;;;;9.80;8.00;;;11.80;99.90;;;;;;5013867;28;20176;-73
2021/05/31 05:18:05;;;;;;;9.93;7.30;;;11.90;99.90;;;;;;5013507;28;20168;-72
2021/05/31 05:20:33;;;;;;;8.83;7.93;;;11.90;99.90;;;;;;5013645;28;20428;-72
2021/05/31 05:22:59;;;;;;;13.90;8.00;;;12.00;99.90;;;;;;5015970;28;20431;-72
2021/05/31 05:25:25;;;;;;;8.97;7.80;;;12.10;99.90;;;;;;5014499;28;20916;-72
2021/05/31 05:27:51;;;;;;;9.87;8.30;;;12.20;99.90;;;;;;5013726;28;20393;-72
2021/05/31 05:30:21;;;;;;;12.40;8.27;;;12.20;99.90;;;;;;5013482;28;20279;-72
2021/05/31 05:32:48;;;;;;;8.73;7.87;;;12.30;99.90;;;;;;5013566;28;20420;-72
2021/05/31 05:35:34;;;;;;;9.80;8.70;;;12.40;99.90;;;;;;5013160;28;20431;-72
2021/05/31 05:40:55;;;;;;;13.90;9.10;;;12.50;99.90;;;;;;5070778;28;20539;-72
2021/05/31 05:48:53;;;;;;;10.70;8.00;;;12.80;99.90;;;;;;5049756;28;20422;-72
2021/05/31 05:51:20;;;;;;;9.10;8.20;;;12.90;99.90;;;;;;5063530;28;20925;-72
2021/05/31 05:53:47;;;;;;;8.87;7.90;;;12.90;99.90;;;;;;5071071;28;20432;-72
2021/05/31 05:56:17;;;;;;;14.20;8.57;;;13.10;99.90;;;;;;5070285;28;20410;-72
2021/05/31 05:58:43;;;;;;;9.57;8.50;;;13.10;99.90;;;;;;5065123;28;20497;-72
2021/05/31 06:01:10;;;;;;;10.00;8.53;;;13.20;99.90;;;;;;5050292;28;20391;-72
2021/05/31 06:03:36;;;;;;;10.80;9.40;;;13.30;99.90;;;;;;5051050;28;20415;-72
2021/05/31 06:06:01;;;;;;;10.43;9.33;;;13.40;99.90;;;;;;5051646;28;20398;-72
2021/05/31 06:08:27;;;;;;;10.80;8.23;;;13.50;99.90;;;;;;5050828;28;20637;-73
2021/05/31 06:10:53;;;;;;;9.93;8.20;;;13.60;99.90;;;;;;5050189;28;20159;-72
2021/05/31 06:13:19;;;;;;;10.23;8.83;;;13.70;99.90;;;;;;5049695;28;20419;-72
2021/05/31 06:15:45;;;;;;;10.40;8.67;;;13.80;99.90;;;;;;5050123;28;20177;-72
2021/05/31 06:18:10;;;;;;;15.23;8.97;;;13.90;99.90;;;;;;5051304;28;20238;-72
2021/05/31 06:20:36;;;;;;;8.83;6.93;;;14.00;99.90;;;;;;5051197;28;20431;-72
2021/05/31 06:23:03;;;;;;;10.43;8.37;;;14.20;99.90;;;;;;5050459;28;20218;-73
2021/05/31 06:25:28;;;;;;;11.00;8.67;;;14.30;99.90;;;;;;5050313;28;20169;-72
2021/05/31 06:27:54;;;;;;;8.33;7.20;;;14.40;99.90;;;;;;5036746;28;20449;-72
2021/05/31 06:30:21;;;;;;;10.63;7.40;;;14.50;99.90;;;;;;5029862;28;20208;-72
2021/05/31 06:32:46;;;;;;;8.07;7.10;;;14.60;99.90;;;;;;5030228;28;20154;-73
2021/05/31 06:35:12;;;;;;;10.50;8.40;;;14.70;99.90;;;;;;5037808;28;20426;-73
2021/05/31 06:37:38;;;;;;;9.80;8.10;;;14.80;99.90;;;;;;5049478;28;20176;-73
2021/05/31 06:40:10;;;;;;;12.47;8.20;;;15.00;99.90;;;;;;5049793;28;20204;-72
2021/05/31 06:42:37;;;;;;;9.20;7.83;;;15.20;99.90;;;;;;5035129;28;20419;-73
2021/05/31 06:45:07;;;;;;;8.77;7.73;;;15.30;99.90;;;;;;5043064;28;20411;-73
2021/05/31 06:47:33;;;;;;;11.93;7.10;;;15.40;99.90;;;;;;5050204;28;20436;-72
2021/05/31 06:49:58;;;;;;;8.73;6.30;;;15.50;99.90;;;;;;5048626;28;20462;-73
2021/05/31 06:52:24;;;;;;;9.77;7.00;;;15.60;99.90;;;;;;5029089;28;20431;-73
2021/05/31 06:54:49;;;;;;;8.90;6.60;;;15.70;99.90;;;;;;5036947;28;20673;-73
2021/05/31 06:57:15;;;;;;;6.63;6.00;;;15.80;99.90;;;;;;5036417;28;20188;-73
2021/05/31 06:59:41;;;;;;;6.53;5.50;;;15.90;99.90;;;;;;5035511;28;20212;-73
2021/05/31 07:02:07;;;;;;;9.23;5.63;;;16.00;99.90;;;;;;5019648;28;20165;-73
2021/05/31 07:04:32;;;;;;;6.30;5.70;;;16.20;99.90;;;;;;5021745;28;20688;-73
2021/05/31 07:06:58;;;;;;;5.83;5.30;;;16.30;99.90;;;;;;5037028;28;20391;-73
2021/05/31 07:09:23;;;;;;;6.97;4.97;;;16.50;99.90;;;;;;5037190;28;20164;-73
2021/05/31 07:11:49;;;;;;;7.60;4.80;;;16.60;99.90;;;;;;5036574;28;20188;-73
2021/05/31 07:14:20;;;;;;;6.63;4.77;;;16.80;99.90;;;;;;5037223;28;20161;-73
2021/05/31 07:16:48;;;;;;;8.20;5.03;;;17.00;99.90;;;;;;5036821;28;20169;-73
2021/05/31 07:19:14;;;;;;;8.17;4.90;;;17.20;99.90;;;;;;5038653;28;21118;-73
2021/05/31 07:21:41;;;;;;;7.20;4.40;;;17.40;99.90;;;;;;5036175;28;20430;-73
2021/05/31 07:24:08;;;;;;;10.60;5.33;;;17.70;99.90;;;;;;5035361;28;20157;-73
2021/05/31 07:26:35;;;;;;;5.10;4.30;;;18.00;99.90;;;;;;5035163;28;20391;-73
2021/05/31 07:29:00;;;;;;;4.40;4.00;;;18.80;99.90;;;;;;5034887;28;20419;-73
2021/05/31 07:31:26;;;;;;;8.60;4.60;;;20.20;97.30;;;;;;5035457;28;20446;-73
2021/05/31 07:33:52;;;;;;;3.83;3.43;;;21.70;91.00;;;;;;5036453;28;20250;-72
2021/05/31 07:36:17;;;;;;;3.63;3.33;;;23.30;75.20;;;;;;5035017;28;20680;-72
2021/05/31 07:38:43;;;;;;;8.47;4.10;;;24.60;64.30;;;;;;5034819;28;20208;-72
2021/05/31 07:41:09;;;;;;;5.20;3.73;;;25.60;58.20;;;;;;5035192;28;20165;-72
2021/05/31 07:43:35;;;;;;;4.73;3.40;;;26.40;53.30;;;;;;5035089;28;20950;-72
2021/05/31 07:46:00;;;;;;;4.50;4.10;;;27.40;50.30;;;;;;5034658;28;20173;-72
2021/05/31 07:48:26;;;;;;;4.63;4.00;;;28.20;46.40;;;;;;5035007;28;20161;-72
2021/05/31 07:50:53;;;;;;;7.10;4.10;;;29.20;45.40;;;;;;5034609;28;20176;-72
2021/05/31 07:53:21;;;;;;;4.07;3.70;;;30.10;41.80;;;;;;5034612;28;20686;-72
2021/05/31 07:55:47;;;;;;;4.10;3.70;;;30.60;38.90;;;;;;5034851;28;20475;-72
2021/05/31 07:58:13;;;;;;;3.60;3.30;;;30.70;37.90;;;;;;5034417;28;20424;-72
2021/05/31 08:00:38;;;;;;;8.03;3.20;;;31.40;37.30;;;;;;5034274;28;20411;-73
2021/05/31 08:03:04;;;;;;;3.77;3.43;;;32.10;36.00;;;;;;5029775;28;20192;-73
2021/05/31 08:05:30;;;;;;;5.07;3.40;;;32.60;34.70;;;;;;5034556;28;20172;-73
2021/05/31 08:07:58;;;;;;;3.17;2.80;;;32.90;33.10;;;;;;5034764;28;20171;-73
2021/05/31 08:10:24;;;;;;;4.67;3.20;;;33.00;31.50;;;;;;5034634;28;20173;-73
2021/05/31 08:12:50;;;;;;;6.23;5.63;;;33.50;31.70;;;;;;5034467;28;20400;-74
2021/05/31 08:15:16;;;;;;;5.00;3.47;;;34.00;31.00;;;;;;5034612;28;20234;-74
2021/05/31 08:17:42;;;;;;;3.63;3.43;;;34.40;29.70;;;;;;5034131;28;20411;-74
2021/05/31 08:20:09;;;;;;;2.83;2.63;;;34.70;29.00;;;;;;5033847;28;20286;-74
2021/05/31 08:22:36;;;;;;;4.40;3.40;;;35.40;28.60;;;;;;5034368;28;20560;-74
2021/05/31 08:25:04;;;;;;;4.43;3.70;;;35.20;28.40;;;;;;5034263;28;20968;-73
2021/05/31 08:27:30;;;;;;;5.20;2.97;;;35.00;28.60;;;;;;5034114;28;20443;-74
2021/05/31 08:29:56;;;;;;;4.33;3.30;;;35.60;28.10;;;;;;5034027;28;20787;-74
2021/05/31 08:32:21;;;;;;;5.13;3.77;;;35.20;27.10;;;;;;5034310;28;20622;-74
2021/05/31 08:34:47;;;;;;;4.67;2.60;;;35.10;27.90;;;;;;5033923;28;20157;-73
2021/05/31 08:37:13;;;;;;;5.70;4.10;;;35.50;27.70;;;;;;5033925;28;20185;-73
2021/05/31 08:39:39;;;;;;;7.03;3.37;;;36.30;27.20;;;;;;5033741;28;20193;-73
2021/05/31 08:42:05;;;;;;;3.20;2.90;;;37.20;25.60;;;;;;5033866;28;20153;-74
2021/05/31 08:44:31;;;;;;;3.53;2.80;;;37.20;24.90;;;;;;5033972;28;20602;-73
2021/05/31 08:47:02;;;;;;;3.30;3.00;;;36.90;25.30;;;;;;5033715;28;20153;-74
2021/05/31 08:49:28;;;;;;;3.50;3.07;;;36.70;25.20;;;;;;5033422;28;20404;-74
2021/05/31 08:51:54;;;;;;;3.37;3.07;;;37.10;25.00;;;;;;5033204;28;20522;-74
2021/05/31 08:54:19;;;;;;;3.37;2.93;;;37.50;24.50;;;;;;5033766;28;20526;-74
2021/05/31 08:56:45;;;;;;;2.60;2.40;;;37.40;24.50;;;;;;5033573;28;20179;-74
2021/05/31 08:59:11;;;;;;;4.23;3.30;;;37.00;25.00;;;;;;5033700;28;20568;-74
2021/05/31 09:01:36;;;;;;;4.73;3.43;;;37.00;25.10;;;;;;5033458;28;20210;-74
2021/05/31 09:04:03;;;;;;;2.60;2.40;;;37.00;24.30;;;;;;5033130;28;20614;-73
2021/05/31 09:06:29;;;;;;;3.30;2.97;;;37.40;24.30;;;;;;5033681;28;20232;-73
2021/05/31 09:08:57;;;;;;;5.30;3.27;;;37.60;24.20;;;;;;5033033;28;20431;-73
2021/05/31 09:11:25;;;;;;;4.90;2.87;;;37.50;24.30;;;;;;5032908;28;20423;-73
2021/05/31 09:13:50;;;;;;;4.33;3.10;;;37.20;24.60;;;;;;5033027;28;20461;-74
2021/05/31 09:16:19;;;;;;;4.00;2.50;;;37.80;24.70;;;;;;5032858;28;20446;-74
2021/05/31 09:18:50;;;;;;;3.90;3.50;;;37.90;23.90;;;;;;5033322;28;20161;-74
2021/05/31 09:24:10;;;;;;;4.33;3.93;;;37.90;23.70;;;;;;5058954;28;20568;-74
2021/05/31 09:26:47;;;;;;;5.30;3.50;;;37.30;24.90;;;;;;5026957;28;20400;-74
2021/05/31 09:29:13;;;;;;;4.67;3.40;;;36.80;25.40;;;;;;5018437;28;20508;-74
2021/05/31 09:31:38;;;;;;;4.07;3.77;;;36.00;25.40;;;;;;5026778;28;20756;-74
2021/05/31 09:34:07;;;;;;;4.40;3.37;;;34.90;26.40;;;;;;5026750;28;20482;-74
2021/05/31 09:36:48;;;;;;;3.80;3.40;;;34.40;27.70;;;;;;5026852;28;20601;-73
2021/05/31 09:39:14;;;;;;;3.30;3.00;;;34.00;28.20;;;;;;5026856;28;20392;-74
2021/05/31 09:41:40;;;;;;;6.23;3.97;;;33.40;28.50;;;;;;5026828;28;20445;-74
2021/05/31 09:44:07;;;;;;;4.43;3.03;;;33.10;28.80;;;;;;5069539;28;20173;-74
2021/05/31 09:46:35;;;;;;;3.03;2.60;;;32.90;28.70;;;;;;5006672;28;20166;-73
2021/05/31 09:49:08;;;;;;;5.73;3.30;;;32.50;28.80;;;;;;5006960;28;20389;-73
2021/05/31 09:51:34;;;;;;;3.40;3.20;;;31.80;29.70;;;;;;5020413;28;20469;-73
2021/05/31 09:54:00;;;;;;;3.90;3.50;;;30.90;30.70;;;;;;5026350;28;20408;-73
2021/05/31 09:56:25;;;;;;;3.93;3.63;;;30.80;31.60;;;;;;5026920;28;20165;-73
2021/05/31 09:59:01;;;;;;;4.97;3.60;;;30.70;31.20;;;;;;5027226;28;20204;-73
2021/05/31 10:01:37;;;;;;;3.97;3.50;;;30.50;31.30;;;;;;5022286;28;20177;-73
2021/05/31 10:06:56;;;;;;;4.20;3.00;;;30.10;32.00;;;;;;5005790;28;20512;-73
2021/05/31 10:09:23;;;;;;;7.77;4.00;;;30.00;31.40;;;;;;5006733;28;20474;-73
2021/05/31 10:11:50;;;;;;;6.43;3.90;;;29.70;32.40;;;;;;5006618;28;20434;-73
2021/05/31 10:14:16;;;;;;;7.77;4.27;;;29.40;33.10;;;;;;5021593;28;20457;-73
2021/05/31 10:16:42;;;;;;;4.73;3.73;;;29.20;33.40;;;;;;5026103;28;20412;-73
2021/05/31 10:19:08;;;;;;;2.70;2.50;;;29.00;33.40;;;;;;5016356;28;20178;-73
2021/05/31 10:21:34;;;;;;;5.17;3.43;;;28.80;33.90;;;;;;5006363;28;20770;-73
2021/05/31 10:24:00;;;;;;;4.63;4.17;;;28.60;34.50;;;;;;5006176;28;20208;-72
2021/05/31 10:26:28;;;;;;;3.40;3.03;;;28.40;34.60;;;;;;5016449;28;20170;-73
2021/05/31 10:28:54;;;;;;;5.80;3.50;;;27.90;33.20;;;;;;5026055;28;20222;-73
2021/05/31 10:31:20;;;;;;;4.70;3.50;;;27.50;34.10;;;;;;5026471;28;20495;-73
2021/05/31 10:33:57;;;;;;;3.33;2.83;;;27.20;35.30;;;;;;5021936;28;20436;-73
2021/05/31 10:36:22;;;;;;;4.80;4.40;;;26.60;36.80;;;;;;5000834;28;20413;-73
2021/05/31 10:38:51;;;;;;;3.83;3.47;;;26.30;39.60;;;;;;4993153;28;20397;-73
2021/05/31 10:41:20;;;;;;;4.40;4.00;;;26.00;40.30;;;;;;4993532;28;20174;-73
2021/05/31 10:43:54;;;;;;;4.33;3.83;;;25.80;40.90;;;;;;4997696;28;20459;-72
2021/05/31 10:46:25;;;;;;;8.00;5.27;;;25.50;41.30;;;;;;5012750;28;20424;-72
2021/05/31 10:48:51;;;;;;;6.63;4.80;;;25.30;41.80;;;;;;5012622;28;20401;-72
2021/05/31 10:54:17;;;;;;;6.03;5.43;;;24.70;43.00;;;;;;5113848;27;20505;-73
2021/05/31 10:56:45;;;;;;;7.43;4.93;;;24.50;44.10;;;;;;5111024;28;20911;-73
2021/05/31 10:59:19;;;;;;;8.57;5.57;;;24.20;44.70;;;;;;5102025;28;20777;-73
2021/05/31 11:01:45;;;;;;;5.30;4.80;;;24.00;45.20;;;;;;5090289;28;20400;-73
2021/05/31 11:04:22;;;;;;;10.63;5.70;;;23.90;45.40;;;;;;5090548;28;20381;-73
2021/05/31 11:06:50;;;;;;;6.73;4.30;;;23.80;44.40;;;;;;5090490;28;20166;-73
2021/05/31 11:09:19;;;;;;;5.63;4.40;;;23.60;45.10;;;;;;5090841;28;20795;-73
2021/05/31 11:14:40;;;;;;;8.90;5.00;;;23.50;45.10;;;;;;5090759;27;20555;-73
2021/05/31 11:17:23;;;;;;;6.30;4.27;;;23.30;45.50;;;;;;5090852;28;20838;-73
2021/05/31 11:19:51;;;;;;;4.10;3.73;;;23.10;44.50;;;;;;5090435;28;20385;-73
2021/05/31 11:22:26;;;;;;;6.53;4.27;;;23.00;45.60;;;;;;5091001;28;20389;-73
2021/05/31 11:24:55;;;;;;;7.30;4.63;;;22.90;44.90;;;;;;5090142;28;20412;-73
2021/05/31 11:27:22;;;;;;;5.00;4.30;;;22.80;45.40;;;;;;5070703;28;20990;-73
2021/05/31 11:29:48;;;;;;;4.40;3.77;;;22.70;46.40;;;;;;5070334;28;20390;-73
2021/05/31 11:32:17;;;;;;;4.13;3.80;;;22.60;43.50;;;;;;5069926;28;20810;-73
2021/05/31 11:34:52;;;;;;;10.80;5.17;;;22.60;43.00;;;;;;5082764;28;20170;-73
2021/05/31 11:37:22;;;;;;;5.93;4.23;;;22.40;43.90;;;;;;5091150;28;20428;-73
2021/05/31 11:39:47;;;;;;;4.93;4.10;;;22.40;44.80;;;;;;5090463;28;20389;-73
2021/05/31 11:42:13;;;;;;;4.97;3.73;;;22.30;46.00;;;;;;5090072;28;20396;-73
2021/05/31 11:44:39;;;;;;;5.40;4.50;;;22.20;45.70;;;;;;5089443;28;20174;-73
2021/05/31 11:47:05;;;;;;;5.60;4.17;;;22.20;46.40;;;;;;5089409;28;20182;-73
2021/05/31 11:49:36;;;;;;;4.53;4.13;;;22.10;46.10;;;;;;5089757;28;20413;-73
2021/05/31 11:54:40;;;;;;;4.70;3.60;;;22.20;46.30;;;;;;5111194;27;20465;-73
2021/05/31 11:57:09;;;;;;;5.03;4.00;;;22.10;45.60;;;;;;5090349;28;20842;-73
2021/05/31 12:02:16;;;;;;;5.57;3.77;;;21.90;46.70;;;;;;5091470;27;21108;-73
2021/05/31 12:04:43;;;;;;;8.40;4.93;;;21.90;46.90;;;;;;5090923;28;20385;-73
2021/05/31 12:07:10;;;;;;;4.47;4.07;;;21.90;46.80;;;;;;5091899;28;20378;-73
2021/05/31 12:09:39;;;;;;;4.87;4.13;;;21.90;47.20;;;;;;5091507;28;20385;-73
2021/05/31 12:12:05;;;;;;;3.67;3.30;;;21.80;46.90;;;;;;5090357;28;20798;-73
2021/05/31 12:14:42;;;;;;;4.77;4.03;;;21.80;47.60;;;;;;5090165;28;20405;-73
2021/05/31 12:17:11;;;;;;;3.97;3.67;;;21.80;46.50;;;;;;5079801;28;20402;-73
2021/05/31 12:19:37;;;;;;;7.90;3.27;;;21.80;46.80;;;;;;5070045;28;20402;-73
2021/05/31 12:22:03;;;;;;;4.73;3.90;;;21.80;46.60;;;;;;5070460;28;20442;-73
2021/05/31 12:24:31;;;;;;;3.90;3.50;;;21.80;46.80;;;;;;5069888;28;20458;-73
2021/05/31 12:26:59;;;;;;;4.17;3.77;;;21.80;47.20;;;;;;5070258;28;20505;-73
2021/05/31 12:29:33;;;;;;;5.10;4.10;;;21.80;46.50;;;;;;5069706;28;20760;-73
2021/05/31 12:32:01;;;;;;;6.00;3.83;;;21.80;46.90;;;;;;5069266;28;20409;-73
2021/05/31 12:34:27;;;;;;;5.63;3.73;;;21.70;46.80;;;;;;5073680;28;20417;-73
2021/05/31 12:36:53;;;;;;;4.97;4.00;;;21.80;47.00;;;;;;5091170;28;20472;-73
2021/05/31 12:39:20;;;;;;;5.57;3.37;;;21.90;46.40;;;;;;5089730;28;20160;-73
2021/05/31 12:41:45;;;;;;;4.00;3.60;;;22.00;46.10;;;;;;5089738;28;20433;-73
2021/05/31 12:44:11;;;;;;;5.13;4.00;;;21.90;46.70;;;;;;5089722;28;20439;-73
2021/05/31 12:46:40;;;;;;;9.07;5.23;;;22.00;47.10;;;;;;5079325;28;20186;-73
2021/05/31 12:49:06;;;;;;;4.40;4.00;;;22.00;47.50;;;;;;5069739;28;20164;-73
2021/05/31 12:51:32;;;;;;;5.83;4.00;;;21.90;47.70;;;;;;5070259;28;20761;-73
2021/05/31 12:54:01;;;;;;;4.20;3.80;;;21.80;47.90;;;;;;5069625;28;20389;-73
2021/05/31 12:56:30;;;;;;;4.80;3.50;;;21.80;47.50;;;;;;5069359;28;20433;-73
2021/05/31 12:59:12;;;;;;;5.30;4.37;;;21.80;47.50;;;;;;5069304;28;20488;-73
2021/05/31 13:01:40;;;;;;;4.17;3.77;;;21.80;48.50;;;;;;5068896;28;20463;-73
2021/05/31 13:04:06;;;;;;;6.20;4.00;;;21.80;48.50;;;;;;5068693;28;20394;-73
2021/05/31 13:06:34;;;;;;;5.50;3.97;;;21.80;48.90;;;;;;5049664;28;20460;-73
2021/05/31 13:08:59;;;;;;;7.60;5.27;;;21.90;49.50;;;;;;5058961;28;20218;-73
2021/05/31 13:11:25;;;;;;;12.70;4.67;;;21.90;49.20;;;;;;5068055;28;20398;-73
2021/05/31 13:13:54;;;;;;;4.77;4.30;;;22.00;49.20;;;;;;5056023;28;20164;-73
2021/05/31 13:16:29;;;;;;;5.50;4.67;;;22.10;49.40;;;;;;5055559;28;20518;-73
2021/05/31 13:18:55;;;;;;;5.60;4.47;;;22.00;49.20;;;;;;5057165;28;20422;-73
2021/05/31 13:21:21;;;;;;;6.00;4.70;;;22.00;49.60;;;;;;5055396;28;20454;-73
2021/05/31 13:23:49;;;;;;;5.33;4.70;;;22.00;50.30;;;;;;5055510;28;20593;-73
2021/05/31 13:28:56;;;;;;;4.90;4.17;;;22.00;49.90;;;;;;5070266;28;20516;-73
2021/05/31 13:31:22;;;;;;;10.20;4.80;;;22.10;49.60;;;;;;5070443;28;20906;-73